createdAt,value
2022-10-05T00:01:01.020Z,8.30
2022-10-05T00:03:39.048Z,9.27
2022-10-05T00:06:08.976Z,8.60
2022-10-05T00:08:36.390Z,8.88
2022-10-05T00:11:08.357Z,8.98
2022-10-05T00:13:35.894Z,8.68
2022-10-05T00:16:12.822Z,8.90
2022-10-05T00:18:40.347Z,8.88
2022-10-05T00:21:27.106Z,9.25
2022-10-05T00:23:57.920Z,9.13
2022-10-05T00:26:31.919Z,8.83
2022-10-05T00:29:02.193Z,8.48
2022-10-05T00:31:33.068Z,10.20
2022-10-05T00:34:00.681Z,9.05
2022-10-05T00:36:28.156Z,8.85
2022-10-05T00:38:55.607Z,8.80
2022-10-05T00:41:59.918Z,9.40
2022-10-05T00:45:18.889Z,9.15
2022-10-05T00:48:29.145Z,8.57
2022-10-05T00:51:11.668Z,8.57
2022-10-05T00:54:04.841Z,9.30
2022-10-05T00:56:54.517Z,9.02
2022-10-05T00:59:40.387Z,9.07
2022-10-05T01:02:37.097Z,8.65
2022-10-05T01:05:41.764Z,9.63
2022-10-05T01:08:47.925Z,9.20
2022-10-05T01:11:46.201Z,9.18
2022-10-05T01:14:51.298Z,9.77
2022-10-05T01:17:38.696Z,9.40
2022-10-05T01:20:25.269Z,10.35
2022-10-05T01:23:25.338Z,9.63
2022-10-05T01:26:47.549Z,9.38
2022-10-05T01:29:32.349Z,9.18
2022-10-05T01:32:33.816Z,9.57
2022-10-05T01:35:37.332Z,9.05
2022-10-05T01:38:28.456Z,8.80
2022-10-05T01:42:01.069Z,9.07
2022-10-05T01:44:43.354Z,9.20
2022-10-05T01:47:34.682Z,9.25
2022-10-05T01:50:12.108Z,9.55
2022-10-05T01:53:02.519Z,10.18
2022-10-05T01:56:05.952Z,9.35
2022-10-05T01:58:57.915Z,8.88
2022-10-05T02:05:00.541Z,9.65
2022-10-05T02:07:29.416Z,10.05
2022-10-05T02:10:05.932Z,10.25
2022-10-05T02:12:38.253Z,9.73
2022-10-05T02:15:17.480Z,9.18
2022-10-05T02:18:01.929Z,9.18
2022-10-05T02:20:34.701Z,9.20
2022-10-05T02:23:10.962Z,9.43
2022-10-05T02:25:46.037Z,9.48
2022-10-05T02:28:24.911Z,9.57
2022-10-05T02:31:04.381Z,9.43
2022-10-05T02:33:34.687Z,10.13
2022-10-05T02:36:29.225Z,9.25
2022-10-05T02:39:10.343Z,9.27
2022-10-05T02:41:45.731Z,9.45
2022-10-05T02:44:28.342Z,8.52
2022-10-05T02:52:47.732Z,9.07
2022-10-05T02:55:33.777Z,8.93
2022-10-05T02:58:19.042Z,9.38
2022-10-05T03:01:08.327Z,9.10
2022-10-05T03:03:51.753Z,9.40
2022-10-05T03:06:32.655Z,9.48
2022-10-05T03:09:07.686Z,9.73
2022-10-05T03:12:09.133Z,9.10
2022-10-05T03:15:15.941Z,9.50
2022-10-05T03:18:05.002Z,9.32
2022-10-05T03:20:56.568Z,9.55
2022-10-05T03:23:32.137Z,9.07
2022-10-05T03:26:06.684Z,9.98
2022-10-05T03:29:12.144Z,9.25
2022-10-05T03:31:56.540Z,9.90
2022-10-05T03:34:45.303Z,10.38
2022-10-05T03:37:37.215Z,8.98
2022-10-05T03:40:41.582Z,9.40
2022-10-05T03:43:36.917Z,9.27
2022-10-05T03:46:15.371Z,9.63
2022-10-05T03:49:05.921Z,10.25
2022-10-05T03:51:39.523Z,9.60
2022-10-05T03:54:24.549Z,9.45
2022-10-05T03:56:58.261Z,9.20
2022-10-05T03:59:36.139Z,10.43
2022-10-05T04:02:23.702Z,9.65
2022-10-05T04:05:03.275Z,9.80
2022-10-05T04:07:38.080Z,9.57
2022-10-05T04:10:21.647Z,9.45
2022-10-05T04:13:03.214Z,9.88
2022-10-05T04:15:41.705Z,9.65
2022-10-05T04:18:43.643Z,10.13
2022-10-05T04:21:26.154Z,9.43
2022-10-05T04:24:05.417Z,10.10
2022-10-05T04:26:57.673Z,10.55
2022-10-05T04:29:53.414Z,9.70
2022-10-05T04:32:37.325Z,9.23
2022-10-05T04:35:43.520Z,9.20
2022-10-05T04:38:34.349Z,10.18
2022-10-05T04:41:27.743Z,9.63
2022-10-05T04:44:20.648Z,10.05
2022-10-05T04:47:11.452Z,10.85
2022-10-05T04:50:32.763Z,9.88
2022-10-05T04:53:40.355Z,9.95
2022-10-05T04:56:20.381Z,10.27
2022-10-05T04:59:51.262Z,10.27
2022-10-05T05:02:50.209Z,9.98
2022-10-05T05:06:17.288Z,9.82
2022-10-05T05:09:04.734Z,9.30
2022-10-05T05:11:45.228Z,10.30
2022-10-05T05:14:34.049Z,9.90
2022-10-05T05:17:41.171Z,10.23
2022-10-05T05:20:27.980Z,9.40
2022-10-05T05:23:32.405Z,9.30
2022-10-05T05:26:28.640Z,8.57
2022-10-05T05:29:34.858Z,9.20
2022-10-05T05:32:34.987Z,9.02
2022-10-05T05:35:24.057Z,8.75
2022-10-05T05:38:31.670Z,8.43
2022-10-05T05:41:14.804Z,9.30
2022-10-05T05:44:19.834Z,8.48
2022-10-05T05:47:37.965Z,8.68
2022-10-05T05:50:34.503Z,8.52
2022-10-05T05:53:16.052Z,8.35
2022-10-05T05:55:53.883Z,8.65
2022-10-05T05:58:47.523Z,8.77
2022-10-05T06:01:39.491Z,8.68
2022-10-05T06:04:17.072Z,8.60
2022-10-05T06:06:58.069Z,8.65
2022-10-05T06:09:41.820Z,8.50
2022-10-05T06:12:28.941Z,8.10
2022-10-05T06:15:13.830Z,7.15
2022-10-05T06:17:48.685Z,7.88
2022-10-05T06:20:51.802Z,7.60
2022-10-05T06:23:42.967Z,7.65
2022-10-05T06:26:34.019Z,7.07
2022-10-05T06:29:09.001Z,7.10
2022-10-05T06:32:06.318Z,6.95
2022-10-05T06:35:08.483Z,6.97
2022-10-05T06:38:06.613Z,6.63
2022-10-05T06:40:51.722Z,6.45
2022-10-05T06:43:51.276Z,6.20
2022-10-05T06:47:07.425Z,5.88
2022-10-05T06:50:36.106Z,6.13
2022-10-05T06:53:43.207Z,6.38
2022-10-05T06:56:31.388Z,6.32
2022-10-05T06:59:43.538Z,6.05
2022-10-05T07:02:30.429Z,5.70
2022-10-05T07:05:35.804Z,6.50
2022-10-05T07:08:19.128Z,5.85
2022-10-05T07:11:15.230Z,6.10
2022-10-05T07:14:04.392Z,5.57
2022-10-05T07:17:00.319Z,6.00
2022-10-05T07:19:40.982Z,5.72
2022-10-05T07:22:51.884Z,5.35
2022-10-05T07:25:28.760Z,5.25
2022-10-05T07:28:33.198Z,5.93
2022-10-05T07:31:18.655Z,5.35
2022-10-05T07:34:04.820Z,5.45
2022-10-05T07:37:01.736Z,5.50
2022-10-05T07:40:15.235Z,5.57
2022-10-05T07:43:14.414Z,5.32
2022-10-05T07:46:06.580Z,5.28
2022-10-05T07:49:05.965Z,5.15
2022-10-05T07:51:41.210Z,4.80
2022-10-05T07:54:27.345Z,4.88
2022-10-05T07:57:19.323Z,4.93
2022-10-05T08:00:06.128Z,4.53
2022-10-05T08:03:07.723Z,4.70
2022-10-05T08:05:42.219Z,5.00
2022-10-05T08:08:47.670Z,5.00
2022-10-05T08:11:27.333Z,4.80
2022-10-05T08:14:16.567Z,4.53
2022-10-05T08:16:50.141Z,4.53
2022-10-05T08:19:39.470Z,4.90
2022-10-05T08:22:17.556Z,4.82
2022-10-05T08:25:05.753Z,4.53
2022-10-05T08:27:49.423Z,4.85
2022-10-05T08:30:17.394Z,3.97
2022-10-05T08:32:55.950Z,4.30
2022-10-05T08:35:38.032Z,4.38
2022-10-05T08:38:16.719Z,4.20
2022-10-05T08:41:00.050Z,4.50
2022-10-05T08:44:05.624Z,4.65
2022-10-05T08:46:51.107Z,3.92
2022-10-05T08:50:08.083Z,4.50
2022-10-05T08:53:15.867Z,4.38
2022-10-05T08:55:57.728Z,3.80
2022-10-05T08:59:03.758Z,3.83
2022-10-05T09:01:53.086Z,4.35
2022-10-05T09:05:11.849Z,3.63
2022-10-05T09:08:29.763Z,3.58
2022-10-05T09:11:06.907Z,3.67
2022-10-05T09:14:13.953Z,3.63
2022-10-05T09:16:58.090Z,3.72
2022-10-05T09:19:34.381Z,3.70
2022-10-05T09:22:56.809Z,3.70
2022-10-05T09:26:00.560Z,3.80
2022-10-05T09:29:05.572Z,3.40
2022-10-05T09:32:06.556Z,3.60
2022-10-05T09:35:08.263Z,3.72
2022-10-05T09:38:08.281Z,3.78
2022-10-05T09:41:40.444Z,3.30
2022-10-05T09:45:04.348Z,3.83
2022-10-05T09:48:25.915Z,3.88
2022-10-05T09:51:32.494Z,3.65
2022-10-05T09:55:02.829Z,3.30
2022-10-05T09:58:06.769Z,3.20
2022-10-05T10:00:51.528Z,4.38
2022-10-05T10:03:44.974Z,3.25
2022-10-05T10:06:37.467Z,3.75
2022-10-05T10:09:40.209Z,3.17
2022-10-05T10:12:50.489Z,3.30
2022-10-05T10:15:44.257Z,3.22
2022-10-05T10:18:40.603Z,3.15
2022-10-05T10:21:34.523Z,3.10
2022-10-05T10:25:03.400Z,2.97
2022-10-05T10:28:06.209Z,3.08
2022-10-05T10:31:17.226Z,2.95
2022-10-05T10:34:14.492Z,2.78
2022-10-05T10:37:33.609Z,2.95
2022-10-05T10:40:42.397Z,2.67
2022-10-05T10:43:56.176Z,2.53
2022-10-05T10:46:53.870Z,2.47
2022-10-05T10:50:01.801Z,2.80
2022-10-05T10:53:25.703Z,2.45
2022-10-05T10:56:50.251Z,2.40
2022-10-05T10:59:54.796Z,2.40
2022-10-05T11:02:39.397Z,2.38
2022-10-05T11:05:37.189Z,2.38
2022-10-05T11:08:51.467Z,2.50
2022-10-05T11:11:48.002Z,2.15
2022-10-05T11:15:07.436Z,2.20
2022-10-05T11:18:08.369Z,2.28
2022-10-05T11:21:18.075Z,2.05
2022-10-05T11:24:22.660Z,2.22
2022-10-05T11:27:41.054Z,1.98
2022-10-05T11:30:51.172Z,2.15
2022-10-05T11:34:03.172Z,2.10
2022-10-05T11:37:01.895Z,1.85
2022-10-05T11:40:07.364Z,2.00
2022-10-05T11:42:57.439Z,2.15
2022-10-05T11:46:05.363Z,1.80
2022-10-05T11:49:00.510Z,1.90
2022-10-05T11:51:42.141Z,2.20
2022-10-05T11:56:44.489Z,1.90
2022-10-05T12:00:08.821Z,2.42
2022-10-05T12:03:03.619Z,1.98
2022-10-05T12:05:58.737Z,2.40
2022-10-05T12:09:14.948Z,2.30
2022-10-05T12:11:58.388Z,2.00
2022-10-05T12:14:57.077Z,2.03
2022-10-05T12:17:51.215Z,1.77
2022-10-05T12:20:58.108Z,1.88
2022-10-05T12:23:37.124Z,2.13
2022-10-05T12:26:16.247Z,1.92
2022-10-05T12:29:07.644Z,1.80
2022-10-05T12:31:46.249Z,1.80
2022-10-05T12:34:35.281Z,1.80
2022-10-05T12:37:15.775Z,1.50
2022-10-05T12:40:02.413Z,1.83
2022-10-05T12:42:54.259Z,1.83
2022-10-05T12:46:13.576Z,1.65
2022-10-05T12:49:34.224Z,1.35
2022-10-05T12:52:06.705Z,1.67
2022-10-05T12:55:00.617Z,1.80
2022-10-05T12:58:05.310Z,1.20
2022-10-05T13:00:43.754Z,1.50
2022-10-05T13:03:30.299Z,1.40
2022-10-05T13:06:26.664Z,1.40
2022-10-05T13:09:12.855Z,1.10
2022-10-05T13:11:51.456Z,1.45
2022-10-05T13:14:55.351Z,1.20
2022-10-05T13:18:10.291Z,1.27
2022-10-05T13:21:12.414Z,1.38
2022-10-05T13:24:18.797Z,1.10
2022-10-05T13:27:03.742Z,1.25
2022-10-05T13:29:58.218Z,1.00
2022-10-05T13:32:33.964Z,1.38
2022-10-05T13:35:29.521Z,1.40
2022-10-05T13:38:02.442Z,1.33
2022-10-05T13:40:45.352Z,1.38
2022-10-05T13:44:05.922Z,1.30
2022-10-05T13:46:52.332Z,1.45
2022-10-05T13:49:42.874Z,1.10
2022-10-05T13:52:42.245Z,1.23
2022-10-05T13:55:33.143Z,1.27
2022-10-05T13:58:23.052Z,1.30
2022-10-05T14:00:55.996Z,1.20
2022-10-05T14:03:38.193Z,1.35
2022-10-05T14:06:37.206Z,1.38
2022-10-05T14:09:13.231Z,1.38
2022-10-05T14:11:50.798Z,1.45
2022-10-05T14:14:53.918Z,1.80
2022-10-05T14:17:33.693Z,1.38
2022-10-05T14:20:15.744Z,1.50
2022-10-05T14:22:49.132Z,1.27
2022-10-05T14:25:18.237Z,1.35
2022-10-05T14:28:02.596Z,1.50
2022-10-05T14:30:32.633Z,1.58
2022-10-05T14:33:03.039Z,1.55
2022-10-05T14:35:50.592Z,1.40
2022-10-05T14:38:26.279Z,1.40
2022-10-05T14:41:05.675Z,1.30
2022-10-05T14:43:34.590Z,1.23
2022-10-05T14:46:28.053Z,1.50
2022-10-05T14:49:29.678Z,1.45
2022-10-05T14:51:58.507Z,1.60
2022-10-05T14:54:59.323Z,1.60
2022-10-05T14:57:56.230Z,1.65
2022-10-05T15:00:25.908Z,1.60
2022-10-05T15:03:30.980Z,1.50
2022-10-05T15:06:02.330Z,1.63
2022-10-05T15:09:17.079Z,1.73
2022-10-05T15:11:56.347Z,1.90
2022-10-05T15:14:31.733Z,1.48
2022-10-05T15:17:16.175Z,1.75
2022-10-05T15:19:54.179Z,1.60
2022-10-05T15:22:31.754Z,2.13
2022-10-05T15:25:16.414Z,2.10
2022-10-05T15:28:11.929Z,2.17
2022-10-05T15:31:01.253Z,2.28
2022-10-05T15:33:43.135Z,1.85
2022-10-05T15:36:32.274Z,1.77
2022-10-05T15:39:21.257Z,1.98
2022-10-05T15:42:11.124Z,1.55
2022-10-05T15:45:14.811Z,1.52
2022-10-05T15:48:23.421Z,1.60
2022-10-05T15:51:24.621Z,1.73
2022-10-05T15:54:24.351Z,1.50
2022-10-05T15:57:10.824Z,1.33
2022-10-05T16:00:01.475Z,1.55
2022-10-05T16:03:09.544Z,1.60
2022-10-05T16:06:14.869Z,1.23
2022-10-05T16:09:27.969Z,1.42
2022-10-05T16:12:11.980Z,1.58
2022-10-05T16:15:08.781Z,1.40
2022-10-05T16:18:10.597Z,1.70
2022-10-05T16:21:06.125Z,1.50
2022-10-05T16:23:49.458Z,1.48
2022-10-05T16:26:50.268Z,1.42
2022-10-05T16:29:54.173Z,1.25
2022-10-05T16:32:49.860Z,1.08
2022-10-05T16:35:31.897Z,1.50
2022-10-05T16:38:43.069Z,1.42
2022-10-05T16:41:32.522Z,1.33
2022-10-05T16:44:39.727Z,1.20
2022-10-05T16:47:35.042Z,1.75
2022-10-05T16:50:19.924Z,1.40
2022-10-05T16:52:58.895Z,1.83
2022-10-05T16:55:41.917Z,1.55
2022-10-05T16:58:23.773Z,1.27
2022-10-05T17:01:19.419Z,1.38
2022-10-05T17:04:16.956Z,1.63
2022-10-05T17:07:36.013Z,1.73
2022-10-05T17:10:43.356Z,1.40
2022-10-05T17:13:44.924Z,1.55
2022-10-05T17:16:35.482Z,1.80
2022-10-05T17:19:53.108Z,2.10
2022-10-05T17:22:26.474Z,1.67
2022-10-05T17:25:24.264Z,1.90
2022-10-05T17:28:20.107Z,1.90
2022-10-05T17:31:13.893Z,1.55
2022-10-05T17:34:25.898Z,1.70
2022-10-05T17:37:27.884Z,1.45
2022-10-05T17:42:30.199Z,1.63
2022-10-05T17:45:20.677Z,1.63
2022-10-05T17:48:12.443Z,1.65
2022-10-05T17:53:52.493Z,1.60
2022-10-05T17:56:23.091Z,1.85
2022-10-05T17:58:54.379Z,1.60
2022-10-05T18:01:40.039Z,1.70
2022-10-05T18:04:13.509Z,1.50
2022-10-05T18:07:01.652Z,1.55
2022-10-05T18:09:36.089Z,1.77
2022-10-05T18:12:17.979Z,1.60
2022-10-05T18:14:59.846Z,1.40
2022-10-05T18:17:47.283Z,1.30
2022-10-05T18:20:34.832Z,1.90
2022-10-05T18:23:09.461Z,1.25
2022-10-05T18:25:55.936Z,1.67
2022-10-05T18:29:43.340Z,1.50
2022-10-05T18:32:42.387Z,1.77
2022-10-05T18:35:23.480Z,1.48
2022-10-05T18:38:47.504Z,1.70
2022-10-05T18:41:39.269Z,1.48
2022-10-05T18:46:58.411Z,1.70
2022-10-05T18:49:59.735Z,1.48
2022-10-05T18:52:42.320Z,1.73
2022-10-05T18:55:24.131Z,1.75
2022-10-05T18:58:07.777Z,2.25
2022-10-05T19:01:28.995Z,1.90
2022-10-05T19:04:53.588Z,2.40
2022-10-05T19:07:59.165Z,1.70
2022-10-05T19:10:55.095Z,1.88
2022-10-05T19:13:48.842Z,1.80
2022-10-05T19:16:49.176Z,1.77
2022-10-05T19:20:03.953Z,2.08
2022-10-05T19:22:38.309Z,1.95
2022-10-05T19:25:38.687Z,2.03
2022-10-05T19:28:36.922Z,1.90
2022-10-05T19:31:12.772Z,2.20
2022-10-05T19:34:06.152Z,2.00
2022-10-05T19:37:05.871Z,2.30
2022-10-05T19:39:58.021Z,2.15
2022-10-05T19:42:55.605Z,2.00
2022-10-05T19:45:26.625Z,2.20
2022-10-05T19:48:13.755Z,2.22
2022-10-05T19:50:57.652Z,2.28
2022-10-05T19:53:46.727Z,2.38
2022-10-05T19:56:20.728Z,2.17
2022-10-05T19:58:50.328Z,2.08
2022-10-05T20:01:36.838Z,2.22
2022-10-05T20:04:05.230Z,2.28
2022-10-05T20:06:33.789Z,2.38
2022-10-05T20:09:20.818Z,2.78
2022-10-05T20:11:53.027Z,3.38
2022-10-05T20:14:31.087Z,2.50
2022-10-05T20:17:47.091Z,3.25
2022-10-05T20:20:45.744Z,2.53
2022-10-05T20:23:30.262Z,2.22
2022-10-05T20:28:44.347Z,1.88
2022-10-05T20:31:12.430Z,2.00
2022-10-05T20:33:40.436Z,1.65
2022-10-05T20:36:08.536Z,1.42
2022-10-05T20:38:40.047Z,1.30
2022-10-05T20:41:08.415Z,1.15
2022-10-05T20:43:38.849Z,1.27
2022-10-05T20:46:07.444Z,1.20
2022-10-05T20:48:36.461Z,1.15
2022-10-05T20:51:04.077Z,1.20
2022-10-05T20:53:31.455Z,1.30
2022-10-05T20:55:59.683Z,1.02
2022-10-05T20:58:27.279Z,1.35
2022-10-05T21:01:13.538Z,1.20
2022-10-05T21:03:42.579Z,1.48
2022-10-05T21:06:10.941Z,1.50
2022-10-05T21:08:38.547Z,1.80
2022-10-05T21:11:12.089Z,1.90
2022-10-05T21:13:45.303Z,2.10
2022-10-05T21:16:18.460Z,2.40
2022-10-05T21:18:49.077Z,2.35
2022-10-05T21:21:20.885Z,2.60
2022-10-05T21:23:48.770Z,2.63
2022-10-05T21:26:16.613Z,2.70
2022-10-05T21:28:44.142Z,2.58
2022-10-05T21:31:11.706Z,2.35
2022-10-05T21:33:39.084Z,2.70
2022-10-05T21:36:06.442Z,2.40
2022-10-05T21:38:33.831Z,2.53
2022-10-05T21:41:03.849Z,2.22
2022-10-05T21:43:31.474Z,2.42
2022-10-05T21:45:59.415Z,2.25
2022-10-05T21:48:28.400Z,1.85
2022-10-05T21:50:55.962Z,2.15
2022-10-05T21:53:30.361Z,1.88
2022-10-05T21:56:03.225Z,1.33
2022-10-05T21:58:31.503Z,1.10
2022-10-05T22:00:59.391Z,1.25
2022-10-05T22:03:28.419Z,1.50
2022-10-05T22:05:55.997Z,2.13
2022-10-05T22:08:30.377Z,1.35
2022-10-05T22:11:00.030Z,1.10
2022-10-05T22:13:40.905Z,1.00
2022-10-05T22:16:08.969Z,1.50
2022-10-05T22:18:40.961Z,1.38
2022-10-05T22:21:12.020Z,1.17
2022-10-05T22:23:42.969Z,0.98
2022-10-05T22:26:16.618Z,0.88
2022-10-05T22:28:46.657Z,0.98
2022-10-05T22:31:15.767Z,0.85
2022-10-05T22:33:43.237Z,0.80
2022-10-05T22:36:10.653Z,0.95
2022-10-05T22:38:38.033Z,0.95
2022-10-05T22:41:11.166Z,0.82
2022-10-05T22:43:39.366Z,0.93
2022-10-05T22:46:13.756Z,0.93
2022-10-05T22:48:41.274Z,0.80
2022-10-05T22:51:08.895Z,0.80
2022-10-05T22:53:36.442Z,1.00
2022-10-05T22:56:12.009Z,0.80
2022-10-05T22:58:41.389Z,1.05
2022-10-05T23:01:14.339Z,1.05
2022-10-05T23:03:42.250Z,1.00
2022-10-05T23:06:16.253Z,0.80
2022-10-05T23:08:44.644Z,1.08
2022-10-05T23:11:15.078Z,0.70
2022-10-05T23:13:42.950Z,1.10
2022-10-05T23:16:21.918Z,0.90
2022-10-05T23:18:52.884Z,0.90
2022-10-05T23:21:23.704Z,1.10
2022-10-05T23:23:51.326Z,1.30
2022-10-05T23:26:23.452Z,0.93
2022-10-05T23:28:51.090Z,1.02
2022-10-05T23:31:26.540Z,1.05
2022-10-05T23:33:54.277Z,1.20
2022-10-05T23:36:25.481Z,1.15
2022-10-05T23:38:53.612Z,1.25
2022-10-05T23:41:21.290Z,1.20
2022-10-05T23:43:49.165Z,1.13
2022-10-05T23:46:17.820Z,1.10
2022-10-05T23:48:45.244Z,1.27
2022-10-05T23:51:15.421Z,1.58
2022-10-05T23:53:42.925Z,1.40
2022-10-05T23:56:10.566Z,1.25
2022-10-05T23:58:37.888Z,1.40
